createdAt,value
2022-12-26T00:00:55.698Z,21.75
2022-12-26T00:03:23.546Z,24.33
2022-12-26T00:05:51.203Z,22.52
2022-12-26T00:08:19.179Z,19.95
2022-12-26T00:10:46.770Z,24.30
2022-12-26T00:13:37.380Z,26.17
2022-12-26T00:16:01.978Z,21.52
2022-12-26T00:18:29.560Z,19.73
2022-12-26T00:20:57.617Z,24.77
2022-12-26T00:23:25.088Z,23.45
2022-12-26T00:25:52.581Z,23.25
2022-12-26T00:28:20.247Z,21.45
2022-12-26T00:30:47.769Z,24.63
2022-12-26T00:33:15.332Z,29.73
2022-12-26T00:35:42.900Z,25.20
2022-12-26T00:38:10.438Z,26.85
2022-12-26T00:40:42.908Z,28.92
2022-12-26T00:43:10.955Z,28.65
2022-12-26T00:45:38.756Z,29.75
2022-12-26T00:48:06.646Z,23.42
2022-12-26T00:50:35.065Z,25.95
2022-12-26T00:53:02.830Z,27.90
2022-12-26T00:55:30.307Z,24.88
2022-12-26T00:57:57.964Z,29.80
2022-12-26T01:00:25.551Z,32.30
2022-12-26T01:02:53.189Z,29.77
2022-12-26T01:05:20.836Z,28.88
2022-12-26T01:08:21.682Z,31.98
2022-12-26T01:10:36.090Z,34.63
2022-12-26T01:13:04.053Z,34.97
2022-12-26T01:15:31.551Z,32.22
2022-12-26T01:18:00.581Z,33.33
2022-12-26T01:20:28.936Z,31.75
2022-12-26T01:22:56.836Z,35.20
2022-12-26T01:25:24.802Z,31.67
2022-12-26T01:27:52.633Z,28.95
2022-12-26T01:30:20.375Z,29.70
2022-12-26T01:32:47.920Z,26.77
2022-12-26T01:35:15.417Z,39.00
2022-12-26T01:37:42.991Z,37.53
2022-12-26T01:40:13.094Z,36.85
2022-12-26T01:42:42.550Z,33.83
2022-12-26T01:45:32.283Z,35.08
2022-12-26T01:48:05.154Z,32.47
2022-12-26T01:50:53.429Z,38.55
2022-12-26T01:53:47.015Z,40.75
2022-12-26T01:56:19.200Z,40.60
2022-12-26T01:59:07.784Z,34.47
2022-12-26T02:01:39.286Z,34.28
2022-12-26T02:04:28.443Z,32.35
2022-12-26T02:06:56.173Z,32.97
2022-12-26T02:09:23.925Z,28.50
2022-12-26T02:12:35.413Z,28.48
2022-12-26T02:14:51.255Z,29.17
2022-12-26T02:17:19.139Z,30.40
2022-12-26T02:20:05.358Z,25.33
2022-12-26T02:22:35.810Z,26.48
2022-12-26T02:25:34.247Z,26.02
2022-12-26T02:28:23.546Z,32.55
2022-12-26T02:31:29.549Z,26.80
2022-12-26T02:34:20.016Z,26.08
2022-12-26T02:36:56.392Z,26.73
2022-12-26T02:39:45.744Z,27.42
2022-12-26T02:42:30.000Z,29.00
2022-12-26T02:45:26.466Z,24.05
2022-12-26T02:48:14.504Z,25.25
2022-12-26T02:51:36.664Z,27.23
2022-12-26T02:54:52.448Z,24.60
2022-12-26T02:57:42.311Z,28.65
2022-12-26T03:00:32.280Z,25.30
2022-12-26T03:03:38.977Z,29.35
2022-12-26T03:06:46.329Z,27.48
2022-12-26T03:09:36.968Z,24.70
2022-12-26T03:13:03.532Z,27.38
2022-12-26T03:15:55.431Z,26.48
2022-12-26T03:18:58.595Z,29.90
2022-12-26T03:21:13.641Z,25.70
2022-12-26T03:23:44.035Z,25.92
2022-12-26T03:26:36.047Z,26.75
2022-12-26T03:29:19.218Z,24.77
2022-12-26T03:31:46.866Z,26.35
2022-12-26T03:34:20.015Z,24.02
2022-12-26T03:37:01.622Z,21.77
2022-12-26T03:40:07.742Z,27.10
2022-12-26T03:43:27.069Z,26.02
2022-12-26T03:46:25.849Z,24.95
2022-12-26T03:49:35.487Z,28.17
2022-12-26T03:52:45.489Z,24.85
2022-12-26T03:55:42.546Z,24.60
2022-12-26T03:59:09.065Z,21.85
2022-12-26T04:02:06.796Z,22.00
2022-12-26T04:04:55.795Z,23.80
2022-12-26T04:08:04.930Z,24.70
2022-12-26T04:11:01.543Z,25.15
2022-12-26T04:14:05.279Z,20.65
2022-12-26T04:16:58.305Z,25.27
2022-12-26T04:19:28.553Z,22.55
2022-12-26T04:22:25.768Z,21.63
2022-12-26T04:25:50.346Z,18.92
2022-12-26T04:28:37.978Z,21.52
2022-12-26T04:31:32.183Z,22.25
2022-12-26T04:34:22.439Z,19.38
2022-12-26T04:37:18.992Z,21.15
2022-12-26T04:40:08.188Z,22.55
2022-12-26T04:42:54.145Z,19.42
2022-12-26T04:45:22.731Z,19.85
2022-12-26T04:48:05.933Z,13.23
2022-12-26T04:50:33.537Z,16.27
2022-12-26T04:53:01.437Z,13.55
2022-12-26T04:55:35.772Z,17.80
2022-12-26T04:58:03.338Z,13.80
2022-12-26T05:00:30.990Z,12.38
2022-12-26T05:03:19.524Z,11.80
2022-12-26T05:06:08.096Z,13.13
2022-12-26T05:08:59.481Z,11.60
2022-12-26T05:11:27.784Z,14.13
2022-12-26T05:13:56.943Z,13.70
2022-12-26T05:16:45.431Z,18.73
2022-12-26T05:19:32.673Z,15.15
2022-12-26T05:22:19.126Z,14.80
2022-12-26T05:25:04.777Z,12.82
2022-12-26T05:28:11.661Z,14.98
2022-12-26T05:30:39.163Z,16.63
2022-12-26T05:33:24.431Z,17.58
2022-12-26T05:35:51.960Z,14.07
2022-12-26T05:38:19.510Z,13.07
2022-12-26T05:40:47.026Z,12.73
2022-12-26T05:43:14.526Z,13.43
2022-12-26T05:45:42.048Z,17.15
2022-12-26T05:48:09.582Z,16.98
2022-12-26T05:50:37.095Z,12.27
2022-12-26T05:53:04.999Z,12.77
2022-12-26T05:55:32.547Z,13.05
2022-12-26T05:58:03.786Z,11.98
2022-12-26T06:00:31.884Z,10.68
2022-12-26T06:03:03.094Z,8.95
2022-12-26T06:05:30.713Z,10.88
2022-12-26T06:07:58.304Z,12.07
2022-12-26T06:10:26.942Z,8.57
2022-12-26T06:12:54.437Z,11.23
2022-12-26T06:15:23.271Z,8.70
2022-12-26T06:17:50.763Z,15.02
2022-12-26T06:20:18.270Z,10.85
2022-12-26T06:22:45.810Z,6.80
2022-12-26T06:25:13.551Z,7.40
2022-12-26T06:27:43.902Z,10.40
2022-12-26T06:30:12.137Z,7.53
2022-12-26T06:32:39.741Z,8.93
2022-12-26T06:35:08.962Z,8.73
2022-12-26T06:37:36.635Z,7.53
2022-12-26T06:40:04.336Z,10.85
2022-12-26T06:42:32.718Z,17.83
2022-12-26T06:45:00.274Z,8.65
2022-12-26T06:47:27.743Z,6.65
2022-12-26T06:49:55.202Z,13.02
2022-12-26T06:52:22.704Z,6.78
2022-12-26T06:54:50.240Z,4.43
2022-12-26T06:57:17.780Z,8.23
2022-12-26T06:59:45.257Z,7.53
2022-12-26T07:02:12.879Z,4.63
2022-12-26T07:04:40.424Z,9.68
2022-12-26T07:07:08.092Z,6.65
2022-12-26T07:09:35.663Z,7.90
2022-12-26T07:12:03.194Z,6.05
2022-12-26T07:14:30.709Z,8.02
2022-12-26T07:16:58.224Z,8.40
2022-12-26T07:19:25.765Z,3.95
2022-12-26T07:21:53.313Z,5.10
2022-12-26T07:24:23.369Z,4.78
2022-12-26T07:26:51.344Z,7.60
2022-12-26T07:29:19.299Z,7.05
2022-12-26T07:31:46.965Z,7.97
2022-12-26T07:34:14.790Z,6.13
2022-12-26T07:36:42.792Z,8.52
2022-12-26T07:39:10.402Z,4.80
2022-12-26T07:41:55.261Z,10.32
2022-12-26T07:44:22.883Z,3.63
2022-12-26T07:46:50.454Z,5.05
2022-12-26T07:49:18.154Z,4.15
2022-12-26T07:51:45.698Z,6.80
2022-12-26T07:54:13.555Z,7.35
2022-12-26T07:56:41.763Z,6.57
2022-12-26T07:59:14.469Z,7.55
2022-12-26T08:01:43.192Z,4.03
2022-12-26T08:04:12.566Z,5.65
2022-12-26T08:06:40.512Z,5.65
2022-12-26T08:09:08.823Z,9.50
2022-12-26T08:11:36.685Z,7.10
2022-12-26T08:14:04.659Z,8.75
2022-12-26T08:16:32.315Z,3.72
2022-12-26T08:18:59.980Z,7.50
2022-12-26T08:21:28.371Z,11.40
2022-12-26T08:23:56.740Z,5.30
2022-12-26T08:26:24.351Z,9.48
2022-12-26T08:28:53.148Z,4.60
2022-12-26T08:31:21.901Z,8.75
2022-12-26T08:33:49.657Z,6.82
2022-12-26T08:36:19.128Z,10.27
2022-12-26T08:38:47.203Z,3.55
2022-12-26T08:41:15.007Z,12.15
2022-12-26T08:44:25.178Z,2.85
2022-12-26T08:46:30.143Z,7.75
2022-12-26T08:48:57.667Z,8.80
2022-12-26T08:51:26.199Z,3.97
2022-12-26T08:53:55.950Z,5.38
2022-12-26T08:56:26.223Z,15.57
2022-12-26T08:58:54.179Z,12.73
2022-12-26T09:01:27.698Z,6.60
2022-12-26T09:04:00.770Z,5.28
2022-12-26T09:06:29.759Z,5.60
2022-12-26T09:08:57.222Z,6.65
2022-12-26T09:11:27.358Z,3.08
2022-12-26T09:13:55.682Z,8.57
2022-12-26T09:16:28.840Z,10.68
2022-12-26T09:19:01.781Z,6.90
2022-12-26T09:21:30.509Z,7.20
2022-12-26T09:24:03.827Z,7.60
2022-12-26T09:26:31.764Z,4.80
2022-12-26T09:28:59.482Z,4.28
2022-12-26T09:31:33.299Z,5.13
2022-12-26T09:34:03.103Z,15.00
2022-12-26T09:36:32.967Z,6.65
2022-12-26T09:39:01.150Z,6.72
2022-12-26T09:41:35.831Z,11.25
2022-12-26T09:44:24.974Z,25.90
2022-12-26T09:46:58.385Z,10.43
2022-12-26T09:49:31.853Z,9.52
2022-12-26T09:52:10.437Z,6.38
2022-12-26T09:54:43.869Z,10.57
2022-12-26T09:57:20.118Z,7.80
2022-12-26T09:59:55.622Z,11.30
2022-12-26T10:02:26.143Z,13.88
2022-12-26T10:04:55.424Z,6.28
2022-12-26T10:07:45.357Z,14.40
2022-12-26T10:10:12.929Z,9.57
2022-12-26T10:13:28.077Z,14.43
2022-12-26T10:16:48.008Z,11.55
2022-12-26T10:19:21.491Z,11.60
2022-12-26T10:22:16.385Z,9.00
2022-12-26T10:24:45.805Z,11.38
2022-12-26T10:27:18.998Z,8.65
2022-12-26T10:30:09.122Z,12.45
2022-12-26T10:32:45.437Z,10.38
2022-12-26T10:35:21.596Z,8.30
2022-12-26T10:37:50.540Z,18.02
2022-12-26T10:40:23.043Z,10.13
2022-12-26T10:42:55.875Z,9.68
2022-12-26T10:45:33.447Z,8.07
2022-12-26T10:48:01.025Z,16.67
2022-12-26T10:50:31.932Z,13.02
2022-12-26T10:53:01.155Z,11.73
2022-12-26T10:55:34.857Z,5.32
2022-12-26T10:58:08.114Z,11.27
2022-12-26T11:00:35.795Z,6.20
2022-12-26T11:03:05.277Z,7.55
2022-12-26T11:08:24.793Z,8.27
2022-12-26T11:11:07.315Z,2.55
2022-12-26T11:16:26.666Z,8.23
2022-12-26T11:18:55.232Z,1.27
2022-12-26T11:21:30.372Z,3.58
2022-12-26T11:24:09.937Z,5.35
2022-12-26T11:26:39.417Z,5.40
2022-12-26T11:29:08.523Z,3.78
2022-12-26T11:31:36.673Z,8.15
2022-12-26T11:34:10.044Z,4.82
2022-12-26T11:36:44.165Z,5.38
2022-12-26T11:39:25.707Z,4.38
2022-12-26T11:42:00.617Z,5.97
2022-12-26T11:44:36.417Z,5.25
2022-12-26T11:47:24.468Z,5.75
2022-12-26T11:50:08.195Z,4.63
2022-12-26T11:53:06.778Z,4.05
2022-12-26T11:55:38.142Z,3.03
2022-12-26T11:58:25.382Z,2.90
2022-12-26T12:00:54.324Z,8.93
2022-12-26T12:03:24.040Z,8.57
2022-12-26T12:05:56.178Z,8.80
2022-12-26T12:08:32.734Z,4.82
2022-12-26T12:11:33.864Z,5.53
2022-12-26T12:14:32.594Z,8.60
2022-12-26T12:17:08.296Z,10.35
2022-12-26T12:20:06.854Z,3.95
2022-12-26T12:22:49.353Z,5.70
2022-12-26T12:25:25.903Z,2.67
2022-12-26T12:28:52.967Z,4.93
2022-12-26T12:31:47.977Z,3.17
2022-12-26T12:34:32.541Z,4.57
2022-12-26T12:37:16.168Z,2.92
2022-12-26T12:40:25.300Z,10.60
2022-12-26T12:43:15.845Z,5.78
2022-12-26T12:46:06.356Z,5.28
2022-12-26T12:49:25.066Z,2.90
2022-12-26T12:51:55.583Z,7.50
2022-12-26T12:54:42.503Z,3.10
2022-12-26T12:57:12.774Z,5.88
2022-12-26T12:59:55.149Z,2.75
2022-12-26T13:02:33.159Z,6.28
2022-12-26T13:05:12.785Z,7.53
2022-12-26T13:07:47.391Z,4.00
2022-12-26T13:10:33.091Z,7.50
2022-12-26T13:13:10.756Z,4.97
2022-12-26T13:15:48.035Z,4.05
2022-12-26T13:18:19.957Z,3.58
2022-12-26T13:20:49.455Z,2.63
2022-12-26T13:24:04.410Z,2.80
2022-12-26T13:26:50.945Z,4.45
2022-12-26T13:29:36.894Z,3.85
2022-12-26T13:32:13.894Z,3.58
2022-12-26T13:34:45.304Z,12.63
2022-12-26T13:37:31.785Z,6.67
2022-12-26T13:40:04.921Z,7.47
2022-12-26T13:43:28.229Z,14.32
2022-12-26T13:48:32.294Z,7.53
2022-12-26T13:51:02.915Z,7.07
2022-12-26T13:53:54.771Z,7.57
2022-12-26T13:56:22.334Z,11.30
2022-12-26T13:59:09.080Z,6.45
2022-12-26T14:02:14.613Z,11.57
2022-12-26T14:05:02.412Z,5.45
2022-12-26T14:07:41.036Z,9.52
2022-12-26T14:10:16.202Z,5.93
2022-12-26T14:13:30.851Z,10.48
2022-12-26T14:16:28.776Z,7.07
2022-12-26T14:19:17.530Z,9.93
2022-12-26T14:21:51.457Z,5.88
2022-12-26T14:24:45.306Z,11.45
2022-12-26T14:27:25.139Z,2.58
2022-12-26T14:30:23.833Z,8.13
2022-12-26T14:33:12.908Z,8.02
2022-12-26T14:36:11.989Z,9.77
2022-12-26T14:38:56.042Z,6.35
2022-12-26T14:41:47.340Z,8.93
2022-12-26T14:44:22.210Z,7.18
2022-12-26T14:46:49.755Z,7.43
2022-12-26T14:49:35.848Z,4.85
2022-12-26T14:52:33.772Z,8.63
2022-12-26T14:55:01.505Z,9.05
2022-12-26T14:57:47.069Z,6.78
2022-12-26T15:00:23.004Z,8.55
2022-12-26T15:02:59.503Z,5.88
2022-12-26T15:05:29.924Z,10.55
2022-12-26T15:08:21.870Z,8.25
2022-12-26T15:10:58.214Z,8.02
2022-12-26T15:14:06.776Z,5.72
2022-12-26T15:16:59.243Z,5.40
2022-12-26T15:19:46.951Z,8.15
2022-12-26T15:22:36.201Z,4.78
2022-12-26T15:25:38.012Z,3.25
2022-12-26T15:28:41.255Z,8.18
2022-12-26T15:31:35.933Z,4.90
2022-12-26T15:34:12.337Z,7.00
2022-12-26T15:37:02.824Z,4.18
2022-12-26T15:39:50.023Z,5.40
2022-12-26T15:42:39.123Z,6.40
2022-12-26T15:45:15.086Z,8.93
2022-12-26T15:47:56.276Z,5.22
2022-12-26T15:50:32.371Z,5.65
2022-12-26T15:53:11.973Z,13.57
2022-12-26T15:56:02.919Z,6.82
2022-12-26T15:58:49.184Z,8.48
2022-12-26T16:01:48.881Z,5.43
2022-12-26T16:04:28.285Z,7.93
2022-12-26T16:06:55.726Z,6.47
2022-12-26T16:09:49.757Z,8.68
2022-12-26T16:12:32.828Z,7.93
2022-12-26T16:15:12.330Z,12.27
2022-12-26T16:17:41.359Z,9.00
2022-12-26T16:20:49.997Z,8.25
2022-12-26T16:23:21.251Z,9.10
2022-12-26T16:25:56.748Z,9.77
2022-12-26T16:28:32.460Z,10.00
2022-12-26T16:31:00.891Z,8.35
2022-12-26T16:33:36.024Z,7.03
2022-12-26T16:36:03.619Z,4.93
2022-12-26T16:38:32.910Z,11.98
2022-12-26T16:41:00.668Z,7.40
2022-12-26T16:43:31.128Z,7.57
2022-12-26T16:46:04.333Z,11.15
2022-12-26T16:48:34.212Z,15.13
2022-12-26T16:51:05.277Z,10.48
2022-12-26T16:53:35.616Z,16.95
2022-12-26T16:56:27.751Z,25.98
2022-12-26T16:59:18.576Z,11.60
2022-12-26T17:02:00.777Z,6.85
2022-12-26T17:04:30.556Z,7.63
2022-12-26T17:07:00.483Z,10.77
2022-12-26T17:09:31.166Z,6.70
2022-12-26T17:12:04.953Z,9.80
2022-12-26T17:14:36.420Z,13.68
2022-12-26T17:17:07.039Z,14.73
2022-12-26T17:19:37.201Z,7.65
2022-12-26T17:22:17.823Z,10.43
2022-12-26T17:24:53.111Z,13.95
2022-12-26T17:27:25.865Z,10.77
2022-12-26T17:30:20.895Z,11.77
2022-12-26T17:32:49.156Z,14.88
2022-12-26T17:35:41.391Z,13.13
2022-12-26T17:38:26.891Z,10.15
2022-12-26T17:40:58.093Z,9.10
2022-12-26T17:43:37.796Z,11.50
2022-12-26T17:46:07.357Z,9.32
2022-12-26T17:48:35.699Z,7.82
2022-12-26T17:51:06.194Z,13.98
2022-12-26T17:53:36.989Z,10.85
2022-12-26T17:56:27.196Z,7.60
2022-12-26T17:58:55.607Z,8.32
2022-12-26T18:01:23.419Z,8.07
2022-12-26T18:03:52.956Z,13.02
2022-12-26T18:06:21.910Z,10.88
2022-12-26T18:08:49.477Z,9.43
2022-12-26T18:11:17.106Z,13.70
2022-12-26T18:13:45.327Z,15.00
2022-12-26T18:16:17.638Z,5.60
2022-12-26T18:21:15.220Z,10.05
2022-12-26T18:23:42.996Z,11.80
2022-12-26T18:26:25.217Z,10.38
2022-12-26T18:28:52.878Z,12.85
2022-12-26T18:31:21.261Z,7.75
2022-12-26T18:33:48.991Z,9.93
2022-12-26T18:36:18.242Z,7.95
2022-12-26T18:38:46.005Z,11.85
2022-12-26T18:41:19.018Z,15.50
2022-12-26T18:43:47.069Z,7.43
2022-12-26T18:46:26.977Z,17.42
2022-12-26T18:48:56.665Z,12.23
2022-12-26T18:51:25.403Z,14.70
2022-12-26T18:53:53.312Z,16.05
2022-12-26T18:56:23.471Z,16.15
2022-12-26T18:58:57.600Z,11.45
2022-12-26T19:01:26.438Z,11.00
2022-12-26T19:03:55.093Z,9.27
2022-12-26T19:06:26.670Z,14.70
2022-12-26T19:08:54.253Z,13.67
2022-12-26T19:11:22.381Z,9.25
2022-12-26T19:13:49.971Z,9.93
2022-12-26T19:16:17.739Z,7.00
2022-12-26T19:18:45.315Z,15.18
2022-12-26T19:21:17.319Z,10.27
2022-12-26T19:23:47.846Z,13.57
2022-12-26T19:26:18.022Z,8.35
2022-12-26T19:28:45.732Z,8.02
2022-12-26T19:31:16.471Z,10.95
2022-12-26T19:33:44.084Z,13.02
2022-12-26T19:36:12.384Z,10.05
2022-12-26T19:38:39.931Z,10.25
2022-12-26T19:41:12.996Z,6.97
2022-12-26T19:43:41.274Z,12.90
2022-12-26T19:46:12.161Z,13.18
2022-12-26T19:48:40.151Z,5.22
2022-12-26T19:51:12.581Z,5.80
2022-12-26T19:56:13.327Z,7.03
2022-12-26T19:58:41.458Z,7.38
2022-12-26T20:01:14.394Z,9.25
2022-12-26T20:03:42.294Z,8.68
2022-12-26T20:06:17.333Z,9.30
2022-12-26T20:08:46.842Z,13.00
2022-12-26T20:11:23.717Z,8.10
2022-12-26T20:13:51.986Z,9.15
2022-12-26T20:17:02.705Z,11.32
2022-12-26T20:19:10.159Z,7.15
2022-12-26T20:21:38.384Z,9.85
2022-12-26T20:24:06.558Z,8.50
2022-12-26T20:26:34.088Z,12.50
2022-12-26T20:29:03.045Z,11.77
2022-12-26T20:31:32.624Z,10.13
2022-12-26T20:34:00.766Z,10.68
2022-12-26T20:36:31.215Z,7.88
2022-12-26T20:39:01.280Z,10.63
2022-12-26T20:41:29.732Z,5.93
2022-12-26T20:43:57.677Z,5.95
2022-12-26T20:46:28.460Z,8.50
2022-12-26T20:48:56.816Z,6.18
2022-12-26T20:51:31.620Z,9.65
2022-12-26T20:54:03.066Z,7.35
2022-12-26T20:56:30.956Z,8.10
2022-12-26T20:58:59.590Z,10.68
2022-12-26T21:01:28.273Z,11.15
2022-12-26T21:03:57.293Z,6.20
2022-12-26T21:06:36.319Z,5.13
2022-12-26T21:09:06.504Z,6.97
2022-12-26T21:11:37.972Z,6.50
2022-12-26T21:14:09.114Z,5.40
2022-12-26T21:16:52.003Z,5.53
2022-12-26T21:19:20.542Z,4.22
2022-12-26T21:21:51.752Z,5.75
2022-12-26T21:24:21.324Z,4.55
2022-12-26T21:26:49.557Z,7.45
2022-12-26T21:29:25.367Z,10.40
2022-12-26T21:31:54.014Z,11.02
2022-12-26T21:34:23.674Z,4.30
2022-12-26T21:37:10.293Z,4.97
2022-12-26T21:39:38.986Z,11.75
2022-12-26T21:42:08.469Z,5.80
2022-12-26T21:44:40.353Z,12.20
2022-12-26T21:47:08.816Z,7.68
2022-12-26T21:49:37.432Z,9.07
2022-12-26T21:52:06.959Z,9.02
2022-12-26T21:54:53.034Z,7.32
2022-12-26T21:57:21.452Z,8.73
2022-12-26T21:59:58.769Z,8.52
2022-12-26T22:02:50.634Z,11.25
2022-12-26T22:05:19.833Z,9.88
2022-12-26T22:07:48.492Z,8.68
2022-12-26T22:10:30.222Z,5.47
2022-12-26T22:12:58.054Z,4.78
2022-12-26T22:15:43.808Z,10.40
2022-12-26T22:18:11.603Z,11.18
2022-12-26T22:20:39.090Z,9.88
2022-12-26T22:23:06.876Z,10.38
2022-12-26T22:25:34.470Z,7.07
2022-12-26T22:28:01.966Z,14.30
2022-12-26T22:30:29.514Z,13.88
2022-12-26T22:32:57.075Z,5.97
2022-12-26T22:35:24.617Z,11.88
2022-12-26T22:37:52.112Z,5.75
2022-12-26T22:40:19.687Z,14.63
2022-12-26T22:42:47.196Z,6.75
2022-12-26T22:45:14.844Z,17.42
2022-12-26T22:47:42.348Z,10.68
2022-12-26T22:50:15.046Z,8.68
2022-12-26T22:52:42.778Z,7.38
2022-12-26T22:55:11.028Z,8.15
2022-12-26T22:57:38.593Z,6.32
2022-12-26T23:00:11.077Z,9.00
2022-12-26T23:02:39.091Z,10.07
2022-12-26T23:05:07.445Z,4.47
2022-12-26T23:07:35.215Z,11.38
2022-12-26T23:10:03.009Z,5.88
2022-12-26T23:12:45.744Z,7.57
2022-12-26T23:15:16.305Z,8.57
2022-12-26T23:18:26.137Z,9.95
2022-12-26T23:21:12.467Z,9.00
2022-12-26T23:23:40.412Z,10.43
2022-12-26T23:26:07.998Z,6.43
2022-12-26T23:28:52.972Z,13.45
2022-12-26T23:31:20.505Z,6.18
2022-12-26T23:33:48.045Z,7.38
2022-12-26T23:36:15.587Z,8.93
2022-12-26T23:38:43.064Z,9.00
2022-12-26T23:41:10.543Z,11.93
2022-12-26T23:43:38.050Z,10.85
2022-12-26T23:46:10.712Z,6.57
2022-12-26T23:48:38.304Z,14.05
2022-12-26T23:51:08.269Z,8.27
2022-12-26T23:53:36.675Z,7.32
2022-12-26T23:56:08.237Z,7.20
2022-12-26T23:58:35.791Z,5.72
